createdAt,value
2023-03-28T00:02:41.623Z,14.81
2023-03-28T00:07:44.561Z,15.13
2023-03-28T00:12:47.150Z,15.08
2023-03-28T00:17:52.810Z,15.38
2023-03-28T00:22:55.288Z,15.19
2023-03-28T00:27:58.440Z,15.10
2023-03-28T00:33:00.737Z,15.04
2023-03-28T00:38:04.715Z,15.00
2023-03-28T00:43:06.966Z,15.10
2023-03-28T00:48:15.574Z,15.15
2023-03-28T00:53:21.731Z,15.12
2023-03-28T00:58:28.378Z,15.01
2023-03-28T01:03:36.024Z,15.07
2023-03-28T01:08:44.507Z,15.03
2023-03-28T01:13:50.743Z,15.27
2023-03-28T01:18:53.476Z,15.08
2023-03-28T01:24:23.718Z,15.28
2023-03-28T01:30:03.056Z,15.32
2023-03-28T01:35:36.926Z,15.14
2023-03-28T01:40:52.767Z,14.83
2023-03-28T01:46:22.596Z,15.04
2023-03-28T01:51:36.698Z,15.07
2023-03-28T01:57:02.615Z,15.07
2023-03-28T02:02:08.438Z,15.03
2023-03-28T02:07:11.558Z,14.82
2023-03-28T02:12:25.355Z,14.70
2023-03-28T02:17:29.798Z,14.36
2023-03-28T02:22:38.904Z,14.43
2023-03-28T02:27:43.656Z,14.19
2023-03-28T02:32:50.854Z,13.92
2023-03-28T02:38:15.328Z,14.18
2023-03-28T02:43:46.726Z,14.22
2023-03-28T02:49:37.521Z,13.86
2023-03-28T02:55:02.291Z,13.74
2023-03-28T03:00:12.851Z,13.90
2023-03-28T03:05:16.024Z,13.92
2023-03-28T03:10:19.342Z,14.22
2023-03-28T03:15:21.496Z,13.77
2023-03-28T03:20:23.802Z,13.99
2023-03-28T03:25:26.851Z,13.92
2023-03-28T03:30:29.173Z,13.95
2023-03-28T03:35:34.623Z,14.17
2023-03-28T03:40:36.733Z,13.92
2023-03-28T03:45:40.838Z,13.89
2023-03-28T03:50:42.958Z,14.03
2023-03-28T03:55:45.220Z,13.98
2023-03-28T04:00:49.192Z,13.89
2023-03-28T04:05:53.062Z,14.04
2023-03-28T04:10:55.173Z,13.95
2023-03-28T04:15:57.435Z,13.86
2023-03-28T04:21:02.013Z,14.01
2023-03-28T04:26:04.254Z,14.02
2023-03-28T04:31:07.731Z,13.91
2023-03-28T04:36:11.649Z,14.01
2023-03-28T04:41:17.106Z,13.66
2023-03-28T04:46:19.297Z,13.95
2023-03-28T04:51:21.924Z,13.89
2023-03-28T04:56:24.133Z,13.67
2023-03-28T05:01:27.941Z,13.31
2023-03-28T05:06:30.275Z,13.41
2023-03-28T05:11:34.475Z,13.35
2023-03-28T05:16:36.832Z,13.53
2023-03-28T05:21:40.976Z,13.62
2023-03-28T05:26:43.086Z,13.83
2023-03-28T05:31:45.187Z,13.79
2023-03-28T05:36:47.372Z,13.97
2023-03-28T05:41:49.797Z,14.14
2023-03-28T05:46:51.978Z,14.40
2023-03-28T05:51:54.201Z,14.55
2023-03-28T05:56:56.408Z,14.58
2023-03-28T06:01:59.082Z,14.68
2023-03-28T06:07:03.193Z,14.59
2023-03-28T06:12:06.324Z,14.94
2023-03-28T06:17:08.590Z,14.61
2023-03-28T06:22:10.820Z,14.71
2023-03-28T06:27:13.020Z,14.49
2023-03-28T06:32:15.921Z,14.72
2023-03-28T06:37:18.372Z,14.80
2023-03-28T06:42:21.510Z,14.30
2023-03-28T06:47:23.770Z,14.52
2023-03-28T06:52:26.140Z,14.80
2023-03-28T06:57:28.214Z,14.65
2023-03-28T07:02:30.409Z,14.84
2023-03-28T07:07:32.590Z,14.66
2023-03-28T07:12:34.747Z,14.31
2023-03-28T07:17:37.158Z,14.86
2023-03-28T07:22:39.608Z,15.29
2023-03-28T07:27:42.013Z,15.31
2023-03-28T07:32:53.819Z,15.41
2023-03-28T07:37:59.489Z,14.76
2023-03-28T07:43:01.857Z,15.27
2023-03-28T07:48:05.298Z,15.58
2023-03-28T07:53:07.673Z,15.69
2023-03-28T07:58:10.239Z,15.48
2023-03-28T08:03:13.757Z,15.70
2023-03-28T08:08:16.101Z,16.09
2023-03-28T08:13:18.912Z,16.34
2023-03-28T08:18:25.444Z,16.34
2023-03-28T08:23:28.945Z,16.18
2023-03-28T08:28:35.684Z,15.52
2023-03-28T08:33:38.215Z,15.78
2023-03-28T08:38:44.002Z,16.09
2023-03-28T08:43:59.728Z,16.03
2023-03-28T08:49:07.832Z,16.11
2023-03-28T08:54:29.200Z,16.17
2023-03-28T09:00:02.453Z,16.35
2023-03-28T09:05:22.040Z,16.53
2023-03-28T09:10:43.177Z,16.54
2023-03-28T09:15:51.208Z,16.24
2023-03-28T09:21:08.547Z,16.29
2023-03-28T09:26:17.616Z,16.66
2023-03-28T09:31:27.291Z,16.90
2023-03-28T09:36:45.637Z,17.14
2023-03-28T09:41:54.807Z,16.65
2023-03-28T09:46:57.829Z,16.58
2023-03-28T09:52:00.189Z,16.56
2023-03-28T09:57:04.826Z,16.43
2023-03-28T10:02:27.185Z,15.90
2023-03-28T10:07:44.211Z,15.86
2023-03-28T10:12:49.333Z,15.75
2023-03-28T10:17:51.606Z,15.55
2023-03-28T10:22:56.353Z,15.54
2023-03-28T10:28:00.950Z,15.39
2023-03-28T10:33:18.022Z,15.52
2023-03-28T10:38:23.267Z,15.47
2023-03-28T10:43:32.984Z,15.47
2023-03-28T10:48:36.813Z,15.42
2023-03-28T10:54:06.202Z,15.38
2023-03-28T10:59:17.560Z,15.41
2023-03-28T11:04:28.560Z,15.62
2023-03-28T11:09:36.860Z,15.85
2023-03-28T11:15:11.363Z,16.07
2023-03-28T11:20:28.631Z,15.71
2023-03-28T11:26:08.865Z,15.68
2023-03-28T11:31:19.367Z,15.87
2023-03-28T11:36:50.897Z,15.65
2023-03-28T11:41:54.300Z,15.70
2023-03-28T11:47:10.833Z,15.58
2023-03-28T11:52:26.167Z,15.33
2023-03-28T11:57:36.048Z,14.99
2023-03-28T12:02:41.772Z,15.19
2023-03-28T12:07:53.658Z,15.33
2023-03-28T12:13:15.635Z,15.60
2023-03-28T12:18:37.012Z,15.71
2023-03-28T12:23:59.792Z,15.68
2023-03-28T12:29:17.803Z,15.35
2023-03-28T12:34:38.688Z,15.44
2023-03-28T12:39:50.602Z,15.47
2023-03-28T12:45:44.540Z,15.00
2023-03-28T12:50:59.292Z,15.12
2023-03-28T12:56:03.740Z,15.27
2023-03-28T13:01:08.891Z,15.41
2023-03-28T13:06:13.758Z,15.46
2023-03-28T13:11:33.750Z,15.46
2023-03-28T13:16:57.099Z,15.59
2023-03-28T13:22:00.589Z,15.95
2023-03-28T13:27:14.413Z,16.06
2023-03-28T13:32:23.306Z,16.16
2023-03-28T13:37:47.230Z,16.33
2023-03-28T13:42:59.697Z,16.55
2023-03-28T13:48:12.706Z,16.65
2023-03-28T13:53:16.089Z,16.90
2023-03-28T13:58:19.151Z,16.34
2023-03-28T14:03:21.449Z,16.39
2023-03-28T14:08:25.865Z,16.27
2023-03-28T14:13:31.314Z,15.79
2023-03-28T14:18:44.051Z,15.68
2023-03-28T14:23:58.059Z,15.44
2023-03-28T14:29:11.876Z,15.32
2023-03-28T14:34:14.032Z,14.79
2023-03-28T14:39:18.754Z,13.94
2023-03-28T14:44:21.510Z,13.80
2023-03-28T14:49:26.506Z,13.88
2023-03-28T14:54:33.789Z,14.10
2023-03-28T14:59:45.344Z,13.89
2023-03-28T15:04:48.329Z,14.37
2023-03-28T15:10:27.649Z,15.38
2023-03-28T15:15:52.767Z,16.06
2023-03-28T15:20:59.723Z,14.77
2023-03-28T15:26:13.274Z,14.32
2023-03-28T15:31:17.402Z,13.86
2023-03-28T15:36:24.805Z,14.14
2023-03-28T15:41:49.373Z,14.79
2023-03-28T15:46:54.122Z,14.86
2023-03-28T15:52:05.773Z,14.17
2023-03-28T15:57:12.733Z,15.69
2023-03-28T16:02:24.110Z,17.77
2023-03-28T16:07:27.617Z,19.16
2023-03-28T16:12:29.815Z,17.90
2023-03-28T16:17:33.099Z,16.19
2023-03-28T16:22:35.272Z,16.39
2023-03-28T16:27:38.068Z,15.61
2023-03-28T16:32:40.336Z,14.48
2023-03-28T16:37:42.616Z,13.37
2023-03-28T16:42:44.852Z,13.07
2023-03-28T16:47:50.007Z,12.59
2023-03-28T16:52:52.366Z,12.84
2023-03-28T16:57:54.615Z,12.95
2023-03-28T17:02:57.037Z,13.05
2023-03-28T17:07:59.974Z,12.88
2023-03-28T17:13:04.883Z,12.33
2023-03-28T17:18:07.078Z,12.49
2023-03-28T17:23:09.448Z,12.69
2023-03-28T17:28:11.657Z,12.58
2023-03-28T17:33:13.736Z,12.42
2023-03-28T17:38:16.207Z,12.55
2023-03-28T17:43:18.460Z,12.29
2023-03-28T17:48:20.666Z,12.63
2023-03-28T17:53:22.923Z,12.37
2023-03-28T17:58:25.565Z,12.29
2023-03-28T18:03:28.269Z,12.13
2023-03-28T18:08:30.799Z,12.24
2023-03-28T18:13:33.669Z,12.24
2023-03-28T18:18:35.849Z,12.10
2023-03-28T18:23:38.279Z,11.72
2023-03-28T18:28:40.715Z,11.75
2023-03-28T18:33:44.500Z,11.37
2023-03-28T18:38:48.083Z,11.53
2023-03-28T18:43:50.316Z,11.36
2023-03-28T18:48:54.988Z,11.53
2023-03-28T18:53:57.503Z,11.23
2023-03-28T18:58:59.682Z,11.35
2023-03-28T19:04:02.099Z,11.41
2023-03-28T19:09:05.638Z,11.56
2023-03-28T19:14:07.890Z,11.20
2023-03-28T19:19:10.359Z,10.96
2023-03-28T19:24:12.690Z,10.75
2023-03-28T19:29:14.912Z,10.37
2023-03-28T19:34:18.752Z,10.61
2023-03-28T19:39:21.024Z,10.71
2023-03-28T19:44:23.253Z,10.60
2023-03-28T19:49:25.705Z,10.73
2023-03-28T19:54:27.854Z,10.53
2023-03-28T19:59:30.152Z,10.66
2023-03-28T20:04:32.350Z,10.60
2023-03-28T20:09:35.622Z,10.46
2023-03-28T20:14:38.043Z,10.21
2023-03-28T20:19:40.456Z,10.14
2023-03-28T20:24:42.842Z,10.26
2023-03-28T20:29:46.290Z,10.02
2023-03-28T20:34:48.541Z,10.01
2023-03-28T20:39:52.365Z,10.27
2023-03-28T20:44:54.456Z,10.08
2023-03-28T20:49:59.452Z,10.29
2023-03-28T20:55:01.984Z,10.20
2023-03-28T21:00:07.478Z,10.02
2023-03-28T21:05:09.822Z,10.18
2023-03-28T21:10:12.375Z,10.19
2023-03-28T21:15:15.717Z,10.44
2023-03-28T21:20:18.976Z,10.24
2023-03-28T21:25:21.455Z,10.35
2023-03-28T21:30:23.814Z,10.28
2023-03-28T21:35:28.806Z,10.40
2023-03-28T21:40:31.765Z,10.62
2023-03-28T21:45:34.010Z,10.74
2023-03-28T21:50:39.174Z,10.48
2023-03-28T21:55:42.313Z,10.63
2023-03-28T22:00:44.492Z,10.54
2023-03-28T22:05:47.073Z,10.68
2023-03-28T22:10:53.205Z,10.69
2023-03-28T22:15:58.865Z,10.49
2023-03-28T22:21:02.947Z,10.42
2023-03-28T22:26:07.698Z,10.41
2023-03-28T22:31:10.323Z,10.47
2023-03-28T22:36:12.705Z,10.41
2023-03-28T22:41:15.156Z,9.97
2023-03-28T22:46:18.542Z,10.04
2023-03-28T22:51:25.390Z,10.02
2023-03-28T22:56:27.739Z,9.69
2023-03-28T23:01:30.182Z,9.76
2023-03-28T23:06:35.465Z,9.63
2023-03-28T23:11:37.606Z,9.52
2023-03-28T23:16:39.946Z,9.52
2023-03-28T23:21:43.257Z,9.54
2023-03-28T23:26:45.387Z,9.38
2023-03-28T23:31:47.598Z,9.79
2023-03-28T23:36:52.604Z,9.58
2023-03-28T23:41:54.713Z,9.62
2023-03-28T23:46:57.952Z,9.57
2023-03-28T23:52:00.217Z,9.74
2023-03-28T23:57:02.464Z,9.86
